^^
Your Local Weather - Clay, NY Station Historical Data
Daily Summary for February 3, 2018 Units:  Both    English   Metric
« Previous Day
Next Day »
Daily Weekly Monthly Yearly Custom
  High: Low: Average:
Temperature: 30.1 °F /  -1.1 °C 9.3 °F /  -12.6 °C 19.5 °F /  -6.9 °C
Dew Point: 18.7 °F /  -7.4 °C 2.7 °F /  -16.3 °C 9.4 °F /  -12.6 °C
Humidity: 84% 47% 65%
Wind Speed: 6.0mph /  9.7km/h - 3.1mph /  5km/h
Wind Gust: 13.0mph /  20.9km/h - -
Wind- - SW
Pressure: 30.28 in /  1025.3 hPa 30.04 in /  1017.2 hPa -
Precipitation: 0.01 in /  0.25 mm    
Historical Graphs
 
 
Tabular Data for February 3, 2018
Time Temperature Dew Point Pressure Wind Wind Speed Wind Gust Humidity Rainfall Rate (Hourly) solar
00:00 11.1 °F /  -11.6 °C 7.2 °F /  -13.8 °C 30.27in /  1024.9hPa WSW 2.0mph /  3.2km/h 2.0mph /  3.2km/h 84% 0.00in /  0mm 0 W/m2
00:06 11.1 °F /  -11.6 °C 7.2 °F /  -13.8 °C 30.27in /  1024.9hPa SW 1.0mph /  1.6km/h 2.0mph /  3.2km/h 84% 0.00in /  0mm 0 W/m2
00:12 11.1 °F /  -11.6 °C 7.2 °F /  -13.8 °C 30.26in /  1024.6hPa SW 1.0mph /  1.6km/h 1.0mph /  1.6km/h 84% 0.00in /  0mm 0 W/m2
00:18 11.0 °F /  -11.7 °C 6.8 °F /  -14 °C 30.26in /  1024.6hPa Calm   1.0mph /  1.6km/h 83% 0.00in /  0mm 0 W/m2
00:24 10.8 °F /  -11.8 °C 6.4 °F /  -14.2 °C 30.26in /  1024.6hPa SW 1.0mph /  1.6km/h 3.0mph /  4.8km/h 82% 0.00in /  0mm 0 W/m2
00:30 10.6 °F /  -11.9 °C 6.2 °F /  -14.3 °C 30.26in /  1024.6hPa SW 1.0mph /  1.6km/h 1.0mph /  1.6km/h 82% 0.00in /  0mm 0 W/m2
00:36 10.4 °F /  -12 °C 5.7 °F /  -14.6 °C 30.26in /  1024.6hPa SW 1.0mph /  1.6km/h 1.0mph /  1.6km/h 81% 0.00in /  0mm 0 W/m2
00:42 10.3 °F /  -12.1 °C 5.4 °F /  -14.8 °C 30.26in /  1024.6hPa SW 1.0mph /  1.6km/h 2.0mph /  3.2km/h 80% 0.00in /  0mm 0 W/m2
00:48 10.2 °F /  -12.1 °C 5.0 °F /  -15 °C 30.25in /  1024.3hPa SSW 2.0mph /  3.2km/h 3.0mph /  4.8km/h 79% 0.00in /  0mm 0 W/m2
00:54 10.0 °F /  -12.2 °C 4.5 °F /  -15.3 °C 30.25in /  1024.3hPa SW 2.0mph /  3.2km/h 2.0mph /  3.2km/h 78% 0.00in /  0mm 0 W/m2
01:00 10.0 °F /  -12.2 °C 4.2 °F /  -15.4 °C 30.25in /  1024.3hPa WSW 1.0mph /  1.6km/h 1.0mph /  1.6km/h 77% 0.00in /  0mm 0 W/m2
01:06 9.9 °F /  -12.3 °C 4.1 °F /  -15.5 °C 30.25in /  1024.3hPa WSW 2.0mph /  3.2km/h 2.0mph /  3.2km/h 77% 0.00in /  0mm 0 W/m2
01:12 9.8 °F /  -12.3 °C 3.7 °F /  -15.7 °C 30.25in /  1024.3hPa SW 2.0mph /  3.2km/h 2.0mph /  3.2km/h 76% 0.00in /  0mm 0 W/m2
01:18 9.8 °F /  -12.3 °C 3.5 °F /  -15.8 °C 30.25in /  1024.3hPa WSW 2.0mph /  3.2km/h 4.0mph /  6.4km/h 75% 0.00in /  0mm 0 W/m2
01:24 9.7 °F /  -12.4 °C 3.4 °F /  -15.9 °C 30.25in /  1024.3hPa WSW 2.0mph /  3.2km/h 4.0mph /  6.4km/h 75% 0.00in /  0mm 0 W/m2
01:30 9.6 °F /  -12.4 °C 3.3 °F /  -15.9 °C 30.25in /  1024.3hPa WSW 2.0mph /  3.2km/h 2.0mph /  3.2km/h 75% 0.00in /  0mm 0 W/m2
01:36 9.5 °F /  -12.5 °C 3.2 °F /  -16 °C 30.25in /  1024.3hPa WSW 1.0mph /  1.6km/h 4.0mph /  6.4km/h 75% 0.00in /  0mm 0 W/m2
01:42 9.5 °F /  -12.5 °C 3.2 °F /  -16 °C 30.25in /  1024.3hPa SW 2.0mph /  3.2km/h 4.0mph /  6.4km/h 75% 0.00in /  0mm 0 W/m2
01:48 9.5 °F /  -12.5 °C 3.2 °F /  -16 °C 30.25in /  1024.3hPa WSW 2.0mph /  3.2km/h 4.0mph /  6.4km/h 75% 0.00in /  0mm 0 W/m2
01:54 9.4 °F /  -12.6 °C 2.8 °F /  -16.2 °C 30.24in /  1023.9hPa SW 1.0mph /  1.6km/h 4.0mph /  6.4km/h 74% 0.00in /  0mm 0 W/m2
02:00 9.3 °F /  -12.6 °C 2.7 °F /  -16.3 °C 30.24in /  1023.9hPa WSW 2.0mph /  3.2km/h 2.0mph /  3.2km/h 74% 0.00in /  0mm 0 W/m2
02:06 9.3 °F /  -12.6 °C 2.7 °F /  -16.3 °C 30.25in /  1024.3hPa WSW 1.0mph /  1.6km/h 2.0mph /  3.2km/h 74% 0.00in /  0mm 0 W/m2
02:12 9.3 °F /  -12.6 °C 2.7 °F /  -16.3 °C 30.24in /  1023.9hPa WSW 1.0mph /  1.6km/h 1.0mph /  1.6km/h 74% 0.00in /  0mm 0 W/m2
02:18 9.3 °F /  -12.6 °C 2.7 °F /  -16.3 °C 30.24in /  1023.9hPa WSW 1.0mph /  1.6km/h 2.0mph /  3.2km/h 74% 0.00in /  0mm 0 W/m2
02:24 9.4 °F /  -12.6 °C 2.8 °F /  -16.2 °C 30.24in /  1023.9hPa SW 2.0mph /  3.2km/h 3.0mph /  4.8km/h 74% 0.00in /  0mm 0 W/m2
02:30 9.5 °F /  -12.5 °C 2.9 °F /  -16.2 °C 30.24in /  1023.9hPa SW 1.0mph /  1.6km/h 2.0mph /  3.2km/h 74% 0.00in /  0mm 0 W/m2
02:36 9.6 °F /  -12.4 °C 3.0 °F /  -16.1 °C 30.24in /  1023.9hPa WSW 2.0mph /  3.2km/h 3.0mph /  4.8km/h 74% 0.00in /  0mm 0 W/m2
02:42 10.1 °F /  -12.2 °C 3.8 °F /  -15.7 °C 30.24in /  1023.9hPa SW 2.0mph /  3.2km/h 2.0mph /  3.2km/h 75% 0.00in /  0mm 0 W/m2
02:48 10.5 °F /  -11.9 °C 3.8 °F /  -15.7 °C 30.23in /  1023.6hPa SSW 3.0mph /  4.8km/h 3.0mph /  4.8km/h 74% 0.00in /  0mm 0 W/m2
02:54 10.8 °F /  -11.8 °C 4.1 °F /  -15.5 °C 30.23in /  1023.6hPa SW 3.0mph /  4.8km/h 6.0mph /  9.7km/h 74% 0.00in /  0mm 0 W/m2
03:00 11.0 °F /  -11.7 °C 4.3 °F /  -15.4 °C 30.23in /  1023.6hPa SSW 3.0mph /  4.8km/h 7.0mph /  11.3km/h 74% 0.00in /  0mm 0 W/m2
03:06 11.3 °F /  -11.5 °C 4.6 °F /  -15.2 °C 30.23in /  1023.6hPa WSW 3.0mph /  4.8km/h 9.0mph /  14.5km/h 74% 0.00in /  0mm 0 W/m2
03:12 11.5 °F /  -11.4 °C 4.8 °F /  -15.1 °C 30.23in /  1023.6hPa WSW 4.0mph /  6.4km/h 6.0mph /  9.7km/h 74% 0.00in /  0mm 0 W/m2
03:18 11.6 °F /  -11.3 °C 4.9 °F /  -15.1 °C 30.23in /  1023.6hPa SW 4.0mph /  6.4km/h 6.0mph /  9.7km/h 74% 0.00in /  0mm 0 W/m2
03:24 11.7 °F /  -11.3 °C 5.3 °F /  -14.8 °C 30.23in /  1023.6hPa WSW 3.0mph /  4.8km/h 5.0mph /  8km/h 75% 0.00in /  0mm 0 W/m2
03:30 11.7 °F /  -11.3 °C 5.3 °F /  -14.8 °C 30.23in /  1023.6hPa WSW 3.0mph /  4.8km/h 3.0mph /  4.8km/h 75% 0.00in /  0mm 0 W/m2
03:36 11.8 °F /  -11.2 °C 5.4 °F /  -14.8 °C 30.23in /  1023.6hPa SW 3.0mph /  4.8km/h 5.0mph /  8km/h 75% 0.00in /  0mm 0 W/m2
03:42 12.1 °F /  -11.1 °C 6.0 °F /  -14.4 °C 30.23in /  1023.6hPa SW 3.0mph /  4.8km/h 5.0mph /  8km/h 76% 0.00in /  0mm 0 W/m2
03:48 12.3 °F /  -10.9 °C 6.2 °F /  -14.3 °C 30.22in /  1023.2hPa SW 4.0mph /  6.4km/h 6.0mph /  9.7km/h 76% 0.00in /  0mm 0 W/m2
03:54 12.4 °F /  -10.9 °C 6.3 °F /  -14.3 °C 30.23in /  1023.6hPa West 4.0mph /  6.4km/h 4.0mph /  6.4km/h 76% 0.00in /  0mm 0 W/m2
04:00 12.5 °F /  -10.8 °C 6.1 °F /  -14.4 °C 30.23in /  1023.6hPa West 4.0mph /  6.4km/h 4.0mph /  6.4km/h 75% 0.00in /  0mm 0 W/m2
04:06 12.7 °F /  -10.7 °C 6.3 °F /  -14.3 °C 30.23in /  1023.6hPa SW 4.0mph /  6.4km/h 8.0mph /  12.9km/h 75% 0.00in /  0mm 0 W/m2
04:12 12.7 °F /  -10.7 °C 6.3 °F /  -14.3 °C 30.23in /  1023.6hPa SW 4.0mph /  6.4km/h 8.0mph /  12.9km/h 75% 0.00in /  0mm 0 W/m2
04:20 12.9 °F /  -10.6 °C 6.5 °F /  -14.2 °C 30.23in /  1023.6hPa West 4.0mph /  6.4km/h 7.0mph /  11.3km/h 75% 0.00in /  0mm 0 W/m2
04:26 13.1 °F /  -10.5 °C 6.4 °F /  -14.2 °C 30.23in /  1023.6hPa South 4.0mph /  6.4km/h 7.0mph /  11.3km/h 74% 0.00in /  0mm 0 W/m2
04:32 13.4 °F /  -10.3 °C 6.7 °F /  -14.1 °C 30.23in /  1023.6hPa SW 5.0mph /  8km/h 6.0mph /  9.7km/h 74% 0.00in /  0mm 0 W/m2
04:38 13.5 °F /  -10.3 °C 6.5 °F /  -14.2 °C 30.23in /  1023.6hPa WNW 4.0mph /  6.4km/h 6.0mph /  9.7km/h 73% 0.00in /  0mm 0 W/m2
04:44 13.5 °F /  -10.3 °C 6.5 °F /  -14.2 °C 30.23in /  1023.6hPa SW 4.0mph /  6.4km/h 5.0mph /  8km/h 73% 0.00in /  0mm 0 W/m2
04:50 13.5 °F /  -10.3 °C 6.5 °F /  -14.2 °C 30.24in /  1023.9hPa SW 4.0mph /  6.4km/h 4.0mph /  6.4km/h 73% 0.00in /  0mm 0 W/m2
04:56 13.5 °F /  -10.3 °C 6.8 °F /  -14 °C 30.24in /  1023.9hPa SW 4.0mph /  6.4km/h 5.0mph /  8km/h 74% 0.00in /  0mm 0 W/m2
05:02 13.7 °F /  -10.2 °C 6.9 °F /  -13.9 °C 30.24in /  1023.9hPa SW 4.0mph /  6.4km/h 6.0mph /  9.7km/h 74% 0.00in /  0mm 0 W/m2
05:08 13.9 °F /  -10.1 °C 7.1 °F /  -13.8 °C 30.25in /  1024.3hPa West 5.0mph /  8km/h 7.0mph /  11.3km/h 74% 0.00in /  0mm 0 W/m2
05:14 14.1 °F /  -9.9 °C 7.0 °F /  -13.9 °C 30.25in /  1024.3hPa SW 5.0mph /  8km/h 7.0mph /  11.3km/h 73% 0.00in /  0mm 0 W/m2
05:20 14.3 °F /  -9.8 °C 7.2 °F /  -13.8 °C 30.25in /  1024.3hPa WSW 5.0mph /  8km/h 5.0mph /  8km/h 73% 0.00in /  0mm 0 W/m2
05:26 14.1 °F /  -9.9 °C 7.3 °F /  -13.7 °C 30.25in /  1024.3hPa SW 5.0mph /  8km/h 10.0mph /  16.1km/h 74% 0.00in /  0mm 0 W/m2
05:32 13.7 °F /  -10.2 °C 7.2 °F /  -13.8 °C 30.25in /  1024.3hPa WSW 5.0mph /  8km/h 5.0mph /  8km/h 75% 0.00in /  0mm 0 W/m2
05:38 13.4 °F /  -10.3 °C 7.0 °F /  -13.9 °C 30.25in /  1024.3hPa SW 4.0mph /  6.4km/h 5.0mph /  8km/h 75% 0.00in /  0mm 0 W/m2
05:44 13.5 °F /  -10.3 °C 7.3 °F /  -13.7 °C 30.25in /  1024.3hPa South 5.0mph /  8km/h 8.0mph /  12.9km/h 76% 0.00in /  0mm 0 W/m2
05:50 13.6 °F /  -10.2 °C 7.4 °F /  -13.7 °C 30.25in /  1024.3hPa South 6.0mph /  9.7km/h 6.0mph /  9.7km/h 76% 0.00in /  0mm 0 W/m2
05:56 13.7 °F /  -10.2 °C 7.8 °F /  -13.4 °C 30.25in /  1024.3hPa SSW 6.0mph /  9.7km/h 11.0mph /  17.7km/h 77% 0.00in /  0mm 0 W/m2
06:02 14.0 °F /  -10 °C 8.1 °F /  -13.3 °C 30.25in /  1024.3hPa SSE 5.0mph /  8km/h 9.0mph /  14.5km/h 77% 0.00in /  0mm 0 W/m2
06:08 14.2 °F /  -9.9 °C 8.0 °F /  -13.3 °C 30.25in /  1024.3hPa SSW 5.0mph /  8km/h 9.0mph /  14.5km/h 76% 0.00in /  0mm 0 W/m2
06:14 14.3 °F /  -9.8 °C 8.1 °F /  -13.3 °C 30.26in /  1024.6hPa WSW 5.0mph /  8km/h 5.0mph /  8km/h 76% 0.00in /  0mm 0 W/m2
06:20 14.2 °F /  -9.9 °C 8.0 °F /  -13.3 °C 30.26in /  1024.6hPa NW 3.0mph /  4.8km/h 3.0mph /  4.8km/h 76% 0.00in /  0mm 0 W/m2
06:26 14.1 °F /  -9.9 °C 8.2 °F /  -13.2 °C 30.26in /  1024.6hPa SW 2.0mph /  3.2km/h 4.0mph /  6.4km/h 77% 0.00in /  0mm 0 W/m2
06:32 13.9 °F /  -10.1 °C 8.0 °F /  -13.3 °C 30.26in /  1024.6hPa SW 2.0mph /  3.2km/h 3.0mph /  4.8km/h 77% 0.00in /  0mm 0 W/m2
06:38 13.5 °F /  -10.3 °C 7.6 °F /  -13.6 °C 30.26in /  1024.6hPa SW 1.0mph /  1.6km/h 3.0mph /  4.8km/h 77% 0.00in /  0mm 0 W/m2
06:44 13.3 °F /  -10.4 °C 7.7 °F /  -13.5 °C 30.26in /  1024.6hPa SW 1.0mph /  1.6km/h 2.0mph /  3.2km/h 78% 0.00in /  0mm 0 W/m2
06:50 13.1 °F /  -10.5 °C 7.5 °F /  -13.6 °C 30.26in /  1024.6hPa SW 2.0mph /  3.2km/h 2.0mph /  3.2km/h 78% 0.00in /  0mm 0 W/m2
06:56 13.2 °F /  -10.4 °C 7.9 °F /  -13.4 °C 30.26in /  1024.6hPa SW 2.0mph /  3.2km/h 4.0mph /  6.4km/h 79% 0.00in /  0mm 0 W/m2
07:02 13.3 °F /  -10.4 °C 8.0 °F /  -13.3 °C 30.26in /  1024.6hPa SSW 2.0mph /  3.2km/h 3.0mph /  4.8km/h 79% 0.00in /  0mm 0 W/m2
07:08 13.4 °F /  -10.3 °C 8.4 °F /  -13.1 °C 30.26in /  1024.6hPa South 3.0mph /  4.8km/h 3.0mph /  4.8km/h 80% 0.00in /  0mm 0 W/m2
07:14 13.4 °F /  -10.3 °C 8.4 °F /  -13.1 °C 30.26in /  1024.6hPa SSW 2.0mph /  3.2km/h 2.0mph /  3.2km/h 80% 0.00in /  0mm 0 W/m2
07:20 13.4 °F /  -10.3 °C 8.4 °F /  -13.1 °C 30.26in /  1024.6hPa SSW 2.0mph /  3.2km/h 4.0mph /  6.4km/h 80% 0.00in /  0mm 9 W/m2
07:26 13.6 °F /  -10.2 °C 8.9 °F /  -12.8 °C 30.26in /  1024.6hPa SSW 2.0mph /  3.2km/h 4.0mph /  6.4km/h 81% 0.00in /  0mm 12 W/m2
07:32 13.7 °F /  -10.2 °C 9.0 °F /  -12.8 °C 30.26in /  1024.6hPa South 3.0mph /  4.8km/h 3.0mph /  4.8km/h 81% 0.00in /  0mm 14 W/m2
07:38 13.7 °F /  -10.2 °C 9.0 °F /  -12.8 °C 30.26in /  1024.6hPa South 1.0mph /  1.6km/h 3.0mph /  4.8km/h 81% 0.00in /  0mm 18 W/m2
07:44 13.7 °F /  -10.2 °C 9.2 °F /  -12.7 °C 30.26in /  1024.6hPa South 1.0mph /  1.6km/h 2.0mph /  3.2km/h 82% 0.00in /  0mm 18 W/m2
07:50 13.8 °F /  -10.1 °C 9.3 °F /  -12.6 °C 30.26in /  1024.6hPa South 2.0mph /  3.2km/h 2.0mph /  3.2km/h 82% 0.00in /  0mm 23 W/m2
07:56 13.9 °F /  -10.1 °C 9.7 °F /  -12.4 °C 30.27in /  1024.9hPa SW 2.0mph /  3.2km/h 2.0mph /  3.2km/h 83% 0.00in /  0mm 25 W/m2
08:02 14.1 °F /  -9.9 °C 9.9 °F /  -12.3 °C 30.27in /  1024.9hPa SW 2.0mph /  3.2km/h 3.0mph /  4.8km/h 83% 0.00in /  0mm 33 W/m2
08:08 14.1 °F /  -9.9 °C 9.9 °F /  -12.3 °C 30.27in /  1024.9hPa South 2.0mph /  3.2km/h 5.0mph /  8km/h 83% 0.00in /  0mm 49 W/m2
08:14 14.2 °F /  -9.9 °C 10.0 °F /  -12.2 °C 30.27in /  1024.9hPa South 3.0mph /  4.8km/h 3.0mph /  4.8km/h 83% 0.00in /  0mm 83 W/m2
08:20 14.4 °F /  -9.8 °C 10.4 °F /  -12 °C 30.27in /  1024.9hPa SSW 2.0mph /  3.2km/h 5.0mph /  8km/h 84% 0.00in /  0mm 62 W/m2
08:26 14.6 °F /  -9.7 °C 10.6 °F /  -11.9 °C 30.27in /  1024.9hPa SW 2.0mph /  3.2km/h 5.0mph /  8km/h 84% 0.00in /  0mm 91 W/m2
08:32 15.0 °F /  -9.4 °C 11.0 °F /  -11.7 °C 30.28in /  1025.3hPa SSW 2.0mph /  3.2km/h 3.0mph /  4.8km/h 84% 0.00in /  0mm 130 W/m2
08:38 15.4 °F /  -9.2 °C 11.4 °F /  -11.4 °C 30.27in /  1024.9hPa SW 2.0mph /  3.2km/h 4.0mph /  6.4km/h 84% 0.00in /  0mm 114 W/m2
08:44 15.5 °F /  -9.2 °C 11.5 °F /  -11.4 °C 30.27in /  1024.9hPa SSW 3.0mph /  4.8km/h 5.0mph /  8km/h 84% 0.00in /  0mm 113 W/m2
08:50 15.5 °F /  -9.2 °C 11.5 °F /  -11.4 °C 30.27in /  1024.9hPa SSW 3.0mph /  4.8km/h 4.0mph /  6.4km/h 84% 0.00in /  0mm 125 W/m2
08:56 15.7 °F /  -9.1 °C 11.5 °F /  -11.4 °C 30.27in /  1024.9hPa SW 3.0mph /  4.8km/h 4.0mph /  6.4km/h 83% 0.00in /  0mm 127 W/m2
09:02 16.1 °F /  -8.8 °C 11.6 °F /  -11.3 °C 30.28in /  1025.3hPa WSW 3.0mph /  4.8km/h 3.0mph /  4.8km/h 82% 0.00in /  0mm 132 W/m2
09:08 16.5 °F /  -8.6 °C 11.4 °F /  -11.4 °C 30.27in /  1024.9hPa SW 4.0mph /  6.4km/h 4.0mph /  6.4km/h 80% 0.00in /  0mm 221 W/m2
09:16 17.0 °F /  -8.3 °C 9.8 °F /  -12.3 °C 30.28in /  1025.3hPa SW 5.0mph /  8km/h 11.0mph /  17.7km/h 73% 0.00in /  0mm 144 W/m2
09:22 17.2 °F /  -8.2 °C 9.4 °F /  -12.6 °C 30.28in /  1025.3hPa WSW 5.0mph /  8km/h 7.0mph /  11.3km/h 71% 0.00in /  0mm 230 W/m2
09:28 17.7 °F /  -7.9 °C 8.9 °F /  -12.8 °C 30.28in /  1025.3hPa SW 5.0mph /  8km/h 10.0mph /  16.1km/h 68% 0.00in /  0mm 281 W/m2
09:34 18.0 °F /  -7.8 °C 8.9 °F /  -12.8 °C 30.28in /  1025.3hPa West 5.0mph /  8km/h 6.0mph /  9.7km/h 67% 0.00in /  0mm 250 W/m2
09:40 18.3 °F /  -7.6 °C 8.5 °F /  -13.1 °C 30.28in /  1025.3hPa WSW 4.0mph /  6.4km/h 5.0mph /  8km/h 65% 0.00in /  0mm 329 W/m2
09:46 19.0 °F /  -7.2 °C 8.5 °F /  -13.1 °C 30.28in /  1025.3hPa SW 4.0mph /  6.4km/h 5.0mph /  8km/h 63% 0.00in /  0mm 353 W/m2
09:52 19.2 °F /  -7.1 °C 7.9 °F /  -13.4 °C 30.28in /  1025.3hPa WSW 4.0mph /  6.4km/h 4.0mph /  6.4km/h 61% 0.00in /  0mm 376 W/m2
09:58 19.7 °F /  -6.8 °C 8.4 °F /  -13.1 °C 30.28in /  1025.3hPa SW 4.0mph /  6.4km/h 4.0mph /  6.4km/h 61% 0.00in /  0mm 425 W/m2
10:04 19.7 °F /  -6.8 °C 8.0 °F /  -13.3 °C 30.27in /  1024.9hPa WSW 5.0mph /  8km/h 9.0mph /  14.5km/h 60% 0.00in /  0mm 468 W/m2
10:10 20.1 °F /  -6.6 °C 8.4 °F /  -13.1 °C 30.28in /  1025.3hPa WSW 6.0mph /  9.7km/h 7.0mph /  11.3km/h 60% 0.00in /  0mm 540 W/m2
10:16 20.3 °F /  -6.5 °C 8.6 °F /  -13 °C 30.28in /  1025.3hPa WSW 6.0mph /  9.7km/h 7.0mph /  11.3km/h 60% 0.00in /  0mm 476 W/m2
10:22 20.6 °F /  -6.3 °C 8.1 °F /  -13.3 °C 30.28in /  1025.3hPa West 5.0mph /  8km/h 9.0mph /  14.5km/h 58% 0.00in /  0mm 497 W/m2
10:28 20.4 °F /  -6.4 °C 8.0 °F /  -13.3 °C 30.28in /  1025.3hPa WSW 5.0mph /  8km/h 9.0mph /  14.5km/h 58% 0.00in /  0mm 258 W/m2
10:34 19.5 °F /  -6.9 °C 7.5 °F /  -13.6 °C 30.28in /  1025.3hPa West 6.0mph /  9.7km/h 8.0mph /  12.9km/h 59% 0.00in /  0mm 183 W/m2
10:40 19.5 °F /  -6.9 °C 7.9 °F /  -13.4 °C 30.28in /  1025.3hPa West 6.0mph /  9.7km/h 6.0mph /  9.7km/h 60% 0.00in /  0mm 130 W/m2
10:46 20.2 °F /  -6.6 °C 8.1 °F /  -13.3 °C 30.28in /  1025.3hPa WSW 5.0mph /  8km/h 6.0mph /  9.7km/h 59% 0.00in /  0mm 116 W/m2
10:52 20.5 °F /  -6.4 °C 8.4 °F /  -13.1 °C 30.27in /  1024.9hPa SW 4.0mph /  6.4km/h 4.0mph /  6.4km/h 59% 0.00in /  0mm 104 W/m2
10:58 20.8 °F /  -6.2 °C 8.7 °F /  -12.9 °C 30.27in /  1024.9hPa West 5.0mph /  8km/h 10.0mph /  16.1km/h 59% 0.00in /  0mm 603 W/m2
11:04 21.3 °F /  -5.9 °C 8.8 °F /  -12.9 °C 30.26in /  1024.6hPa WSW 5.0mph /  8km/h 5.0mph /  8km/h 58% 0.00in /  0mm 543 W/m2
11:10 21.1 °F /  -6.1 °C 8.2 °F /  -13.2 °C 30.26in /  1024.6hPa SSW 5.0mph /  8km/h 5.0mph /  8km/h 57% 0.00in /  0mm 582 W/m2
11:16 21.5 °F /  -5.8 °C 8.6 °F /  -13 °C 30.26in /  1024.6hPa WSW 6.0mph /  9.7km/h 6.0mph /  9.7km/h 57% 0.00in /  0mm 601 W/m2
11:22 21.3 °F /  -5.9 °C 8.4 °F /  -13.1 °C 30.26in /  1024.6hPa West 5.0mph /  8km/h 5.0mph /  8km/h 57% 0.00in /  0mm 441 W/m2
11:28 21.8 °F /  -5.7 °C 8.1 °F /  -13.3 °C 30.26in /  1024.6hPa WSW 6.0mph /  9.7km/h 9.0mph /  14.5km/h 55% 0.00in /  0mm 584 W/m2
11:34 22.3 °F /  -5.4 °C 8.6 °F /  -13 °C 30.25in /  1024.3hPa West 6.0mph /  9.7km/h 6.0mph /  9.7km/h 55% 0.00in /  0mm 587 W/m2
11:40 22.5 °F /  -5.3 °C 8.7 °F /  -12.9 °C 30.25in /  1024.3hPa West 5.0mph /  8km/h 5.0mph /  8km/h 55% 0.00in /  0mm 531 W/m2
11:46 23.4 °F /  -4.8 °C 9.2 °F /  -12.7 °C 30.25in /  1024.3hPa SW 4.0mph /  6.4km/h 6.0mph /  9.7km/h 54% 0.00in /  0mm 629 W/m2
11:52 23.0 °F /  -5 °C 8.8 °F /  -12.9 °C 30.25in /  1024.3hPa WSW 4.0mph /  6.4km/h 8.0mph /  12.9km/h 54% 0.00in /  0mm 717 W/m2
11:58 23.6 °F /  -4.7 °C 9.8 °F /  -12.3 °C 30.25in /  1024.3hPa WSW 5.0mph /  8km/h 8.0mph /  12.9km/h 55% 0.00in /  0mm 647 W/m2
12:04 24.1 °F /  -4.4 °C 9.4 °F /  -12.6 °C 30.25in /  1024.3hPa WSW 4.0mph /  6.4km/h 5.0mph /  8km/h 53% 0.00in /  0mm 733 W/m2
12:10 23.3 °F /  -4.8 °C 8.7 °F /  -12.9 °C 30.25in /  1024.3hPa SSW 6.0mph /  9.7km/h 6.0mph /  9.7km/h 53% 0.00in /  0mm 278 W/m2
12:16 22.9 °F /  -5.1 °C 9.1 °F /  -12.7 °C 30.25in /  1024.3hPa SSE 6.0mph /  9.7km/h 8.0mph /  12.9km/h 55% 0.00in /  0mm 325 W/m2
12:22 23.3 °F /  -4.8 °C 9.1 °F /  -12.7 °C 30.24in /  1023.9hPa SW 6.0mph /  9.7km/h 6.0mph /  9.7km/h 54% 0.00in /  0mm 715 W/m2
12:28 24.1 °F /  -4.4 °C 9.0 °F /  -12.8 °C 30.23in /  1023.6hPa WNW 4.0mph /  6.4km/h 13.0mph /  20.9km/h 52% 0.00in /  0mm 636 W/m2
12:34 23.4 °F /  -4.8 °C 8.3 °F /  -13.2 °C 30.23in /  1023.6hPa SSW 5.0mph /  8km/h 7.0mph /  11.3km/h 52% 0.00in /  0mm 232 W/m2
12:40 23.0 °F /  -5 °C 8.4 °F /  -13.1 °C 30.23in /  1023.6hPa WNW 6.0mph /  9.7km/h 6.0mph /  9.7km/h 53% 0.00in /  0mm 339 W/m2
12:46 23.5 °F /  -4.7 °C 8.9 °F /  -12.8 °C 30.22in /  1023.2hPa SW 5.0mph /  8km/h 7.0mph /  11.3km/h 53% 0.00in /  0mm 269 W/m2
12:52 24.1 °F /  -4.4 °C 9.8 °F /  -12.3 °C 30.22in /  1023.2hPa WSW 4.0mph /  6.4km/h 9.0mph /  14.5km/h 54% 0.00in /  0mm 670 W/m2
12:58 23.3 °F /  -4.8 °C 8.7 °F /  -12.9 °C 30.22in /  1023.2hPa West 4.0mph /  6.4km/h 9.0mph /  14.5km/h 53% 0.00in /  0mm 225 W/m2
13:04 22.8 °F /  -5.1 °C 8.6 °F /  -13 °C 30.22in /  1023.2hPa West 5.0mph /  8km/h 5.0mph /  8km/h 54% 0.00in /  0mm 287 W/m2
13:10 22.9 °F /  -5.1 °C 8.7 °F /  -12.9 °C 30.22in /  1023.2hPa WSW 4.0mph /  6.4km/h 5.0mph /  8km/h 54% 0.00in /  0mm 199 W/m2
13:16 22.8 °F /  -5.1 °C 9.0 °F /  -12.8 °C 30.22in /  1023.2hPa West 5.0mph /  8km/h 5.0mph /  8km/h 55% 0.00in /  0mm 202 W/m2
13:22 22.8 °F /  -5.1 °C 9.0 °F /  -12.8 °C 30.21in /  1022.9hPa WSW 5.0mph /  8km/h 5.0mph /  8km/h 55% 0.00in /  0mm 199 W/m2
13:28 22.9 °F /  -5.1 °C 8.7 °F /  -12.9 °C 30.21in /  1022.9hPa SSW 4.0mph /  6.4km/h 9.0mph /  14.5km/h 54% 0.00in /  0mm 188 W/m2
13:34 23.0 °F /  -5 °C 8.8 °F /  -12.9 °C 30.21in /  1022.9hPa SSW 4.0mph /  6.4km/h 5.0mph /  8km/h 54% 0.00in /  0mm 160 W/m2
13:40 23.2 °F /  -4.9 °C 9.0 °F /  -12.8 °C 30.21in /  1022.9hPa SW 3.0mph /  4.8km/h 3.0mph /  4.8km/h 54% 0.00in /  0mm 193 W/m2
13:46 23.4 °F /  -4.8 °C 9.2 °F /  -12.7 °C 30.21in /  1022.9hPa WSW 3.0mph /  4.8km/h 6.0mph /  9.7km/h 54% 0.00in /  0mm 199 W/m2
13:52 23.5 °F /  -4.7 °C 8.9 °F /  -12.8 °C 30.20in /  1022.6hPa SSW 5.0mph /  8km/h 5.0mph /  8km/h 53% 0.00in /  0mm 239 W/m2
13:58 23.6 °F /  -4.7 °C 8.9 °F /  -12.8 °C 30.20in /  1022.6hPa WSW 5.0mph /  8km/h 5.0mph /  8km/h 53% 0.00in /  0mm 239 W/m2
14:04 23.9 °F /  -4.5 °C 9.6 °F /  -12.4 °C 30.20in /  1022.6hPa SW 5.0mph /  8km/h 5.0mph /  8km/h 54% 0.00in /  0mm 330 W/m2
14:10 23.8 °F /  -4.6 °C 9.1 °F /  -12.7 °C 30.21in /  1022.9hPa South 5.0mph /  8km/h 6.0mph /  9.7km/h 53% 0.00in /  0mm 206 W/m2
14:16 23.5 °F /  -4.7 °C 9.7 °F /  -12.4 °C 30.20in /  1022.6hPa South 6.0mph /  9.7km/h 11.0mph /  17.7km/h 55% 0.00in /  0mm 290 W/m2
14:22 23.7 °F /  -4.6 °C 9.9 °F /  -12.3 °C 30.20in /  1022.6hPa SSW 5.0mph /  8km/h 6.0mph /  9.7km/h 55% 0.00in /  0mm 211 W/m2
14:28 24.1 °F /  -4.4 °C 9.8 °F /  -12.3 °C 30.20in /  1022.6hPa SW 3.0mph /  4.8km/h 6.0mph /  9.7km/h 54% 0.00in /  0mm 188 W/m2
14:34 24.0 °F /  -4.4 °C 9.3 °F /  -12.6 °C 30.20in /  1022.6hPa SW 4.0mph /  6.4km/h 8.0mph /  12.9km/h 53% 0.00in /  0mm 179 W/m2
14:40 24.1 °F /  -4.4 °C 9.4 °F /  -12.6 °C 30.20in /  1022.6hPa South 5.0mph /  8km/h 5.0mph /  8km/h 53% 0.00in /  0mm 195 W/m2
14:46 24.2 °F /  -4.3 °C 9.1 °F /  -12.7 °C 30.20in /  1022.6hPa SSW 5.0mph /  8km/h 5.0mph /  8km/h 52% 0.00in /  0mm 190 W/m2
14:52 24.6 °F /  -4.1 °C 9.0 °F /  -12.8 °C 30.20in /  1022.6hPa WSW 4.0mph /  6.4km/h 4.0mph /  6.4km/h 51% 0.00in /  0mm 167 W/m2
14:58 24.7 °F /  -4.1 °C 9.1 °F /  -12.7 °C 30.19in /  1022.2hPa SW 4.0mph /  6.4km/h 4.0mph /  6.4km/h 51% 0.00in /  0mm 158 W/m2
15:04 25.0 °F /  -3.9 °C 9.4 °F /  -12.6 °C 30.19in /  1022.2hPa SSW 3.0mph /  4.8km/h 7.0mph /  11.3km/h 51% 0.00in /  0mm 163 W/m2
15:10 24.9 °F /  -3.9 °C 8.4 °F /  -13.1 °C 30.19in /  1022.2hPa SSW 4.0mph /  6.4km/h 5.0mph /  8km/h 49% 0.00in /  0mm 151 W/m2
15:16 24.9 °F /  -3.9 °C 8.0 °F /  -13.3 °C 30.18in /  1021.9hPa WSW 5.0mph /  8km/h 6.0mph /  9.7km/h 48% 0.00in /  0mm 139 W/m2
15:22 25.0 °F /  -3.9 °C 8.5 °F /  -13.1 °C 30.18in /  1021.9hPa SSW 4.0mph /  6.4km/h 6.0mph /  9.7km/h 49% 0.00in /  0mm 116 W/m2
15:32 25.1 °F /  -3.8 °C 7.7 °F /  -13.5 °C 30.18in /  1021.9hPa SW 3.0mph /  4.8km/h 3.0mph /  4.8km/h 47% 0.00in /  0mm 81 W/m2
15:38 25.1 °F /  -3.8 °C 7.7 °F /  -13.5 °C 30.18in /  1021.9hPa South 3.0mph /  4.8km/h 5.0mph /  8km/h 47% 0.00in /  0mm 72 W/m2
15:43 25.1 °F /  -3.8 °C 7.7 °F /  -13.5 °C 30.18in /  1021.9hPa SSW 4.0mph /  6.4km/h 4.0mph /  6.4km/h 47% 0.00in /  0mm 58 W/m2
15:49 25.1 °F /  -3.8 °C 8.1 °F /  -13.3 °C 30.18in /  1021.9hPa SSW 4.0mph /  6.4km/h 4.0mph /  6.4km/h 48% 0.00in /  0mm 53 W/m2
15:55 25.1 °F /  -3.8 °C 8.1 °F /  -13.3 °C 30.18in /  1021.9hPa SW 4.0mph /  6.4km/h 7.0mph /  11.3km/h 48% 0.00in /  0mm 46 W/m2
16:02 25.1 °F /  -3.8 °C 8.6 °F /  -13 °C 30.18in /  1021.9hPa SSW 3.0mph /  4.8km/h 3.0mph /  4.8km/h 49% 0.00in /  0mm 44 W/m2
16:08 25.2 °F /  -3.8 °C 8.7 °F /  -12.9 °C 30.18in /  1021.9hPa SSW 3.0mph /  4.8km/h 4.0mph /  6.4km/h 49% 0.00in /  0mm 46 W/m2
16:13 25.3 °F /  -3.7 °C 9.2 °F /  -12.7 °C 30.18in /  1021.9hPa South 4.0mph /  6.4km/h 4.0mph /  6.4km/h 50% 0.00in /  0mm 44 W/m2
16:19 25.3 °F /  -3.7 °C 9.7 °F /  -12.4 °C 30.17in /  1021.6hPa SW 2.0mph /  3.2km/h 4.0mph /  6.4km/h 51% 0.00in /  0mm 40 W/m2
16:25 25.3 °F /  -3.7 °C 9.2 °F /  -12.7 °C 30.17in /  1021.6hPa South 1.0mph /  1.6km/h 4.0mph /  6.4km/h 50% 0.00in /  0mm 37 W/m2
16:32 25.4 °F /  -3.7 °C 9.3 °F /  -12.6 °C 30.17in /  1021.6hPa South 3.0mph /  4.8km/h 3.0mph /  4.8km/h 50% 0.00in /  0mm 26 W/m2
16:38 25.4 °F /  -3.7 °C 9.8 °F /  -12.3 °C 30.17in /  1021.6hPa SSW 3.0mph /  4.8km/h 4.0mph /  6.4km/h 51% 0.00in /  0mm 23 W/m2
16:43 25.4 °F /  -3.7 °C 9.3 °F /  -12.6 °C 30.17in /  1021.6hPa SSW 2.0mph /  3.2km/h 2.0mph /  3.2km/h 50% 0.00in /  0mm 19 W/m2
16:49 25.4 °F /  -3.7 °C 9.8 °F /  -12.3 °C 30.17in /  1021.6hPa SSW 1.0mph /  1.6km/h 1.0mph /  1.6km/h 51% 0.00in /  0mm 14 W/m2
16:55 25.4 °F /  -3.7 °C 9.8 °F /  -12.3 °C 30.16in /  1021.2hPa SSW 1.0mph /  1.6km/h 3.0mph /  4.8km/h 51% 0.00in /  0mm 12 W/m2
17:02 25.4 °F /  -3.7 °C 9.8 °F /  -12.3 °C 30.16in /  1021.2hPa SSW 1.0mph /  1.6km/h 1.0mph /  1.6km/h 51% 0.00in /  0mm 9 W/m2
17:08 25.3 °F /  -3.7 °C 9.7 °F /  -12.4 °C 30.16in /  1021.2hPa SSW 1.0mph /  1.6km/h 2.0mph /  3.2km/h 51% 0.00in /  0mm 7 W/m2
17:13 25.3 °F /  -3.7 °C 10.1 °F /  -12.2 °C 30.15in /  1020.9hPa SSW 1.0mph /  1.6km/h 2.0mph /  3.2km/h 52% 0.00in /  0mm 5 W/m2
17:19 25.1 °F /  -3.8 °C 10.3 °F /  -12.1 °C 30.15in /  1020.9hPa Calm     53% 0.00in /  0mm 0 W/m2
17:25 25.0 °F /  -3.9 °C 10.3 °F /  -12.1 °C 30.15in /  1020.9hPa Calm     53% 0.00in /  0mm 0 W/m2
17:31 24.8 °F /  -4 °C 10.9 °F /  -11.7 °C 30.15in /  1020.9hPa Calm     55% 0.00in /  0mm 0 W/m2
17:38 24.4 °F /  -4.2 °C 10.9 °F /  -11.7 °C 30.15in /  1020.9hPa Calm     56% 0.00in /  0mm 0 W/m2
17:43 24.0 °F /  -4.4 °C 11.3 °F /  -11.5 °C 30.15in /  1020.9hPa Calm     58% 0.00in /  0mm 0 W/m2
17:49 23.7 °F /  -4.6 °C 11.1 °F /  -11.6 °C 30.15in /  1020.9hPa Calm     58% 0.00in /  0mm 0 W/m2
17:55 23.3 °F /  -4.8 °C 11.1 °F /  -11.6 °C 30.15in /  1020.9hPa Calm     59% 0.00in /  0mm 0 W/m2
18:02 22.9 °F /  -5.1 °C 11.1 °F /  -11.6 °C 30.15in /  1020.9hPa Calm     60% 0.00in /  0mm 0 W/m2
18:08 22.8 °F /  -5.1 °C 10.6 °F /  -11.9 °C 30.15in /  1020.9hPa Calm   1.0mph /  1.6km/h 59% 0.00in /  0mm 0 W/m2
18:13 22.7 °F /  -5.2 °C 11.3 °F /  -11.5 °C 30.14in /  1020.5hPa Calm     61% 0.00in /  0mm 0 W/m2
18:19 22.4 °F /  -5.3 °C 11.3 °F /  -11.5 °C 30.14in /  1020.5hPa Calm     62% 0.00in /  0mm 0 W/m2
18:25 22.2 °F /  -5.4 °C 11.9 °F /  -11.2 °C 30.13in /  1020.2hPa Calm     64% 0.00in /  0mm 0 W/m2
18:32 21.9 °F /  -5.6 °C 11.9 °F /  -11.2 °C 30.13in /  1020.2hPa Calm     65% 0.00in /  0mm 0 W/m2
18:38 21.8 °F /  -5.7 °C 11.8 °F /  -11.2 °C 30.13in /  1020.2hPa Calm     65% 0.00in /  0mm 0 W/m2
18:43 21.6 °F /  -5.8 °C 11.6 °F /  -11.3 °C 30.13in /  1020.2hPa Calm     65% 0.00in /  0mm 0 W/m2
18:49 21.3 °F /  -5.9 °C 11.7 °F /  -11.3 °C 30.13in /  1020.2hPa Calm     66% 0.00in /  0mm 0 W/m2
18:55 21.1 °F /  -6.1 °C 11.8 °F /  -11.2 °C 30.13in /  1020.2hPa Calm     67% 0.00in /  0mm 0 W/m2
19:02 21.0 °F /  -6.1 °C 11.8 °F /  -11.2 °C 30.13in /  1020.2hPa Calm     67% 0.00in /  0mm 0 W/m2
19:08 21.0 °F /  -6.1 °C 12.1 °F /  -11.1 °C 30.13in /  1020.2hPa Calm     68% 0.00in /  0mm 0 W/m2
19:13 20.9 °F /  -6.2 °C 12.0 °F /  -11.1 °C 30.13in /  1020.2hPa Calm     68% 0.00in /  0mm 0 W/m2
19:19 20.8 °F /  -6.2 °C 11.9 °F /  -11.2 °C 30.13in /  1020.2hPa Calm     68% 0.00in /  0mm 0 W/m2
19:25 20.6 °F /  -6.3 °C 12.0 °F /  -11.1 °C 30.13in /  1020.2hPa Calm     69% 0.00in /  0mm 0 W/m2
19:32 20.4 °F /  -6.4 °C 12.2 °F /  -11 °C 30.13in /  1020.2hPa Calm     70% 0.00in /  0mm 0 W/m2
19:38 20.5 °F /  -6.4 °C 11.9 °F /  -11.2 °C 30.12in /  1019.9hPa Calm     69% 0.00in /  0mm 0 W/m2
19:43 20.7 °F /  -6.3 °C 11.8 °F /  -11.2 °C 30.12in /  1019.9hPa Calm     68% 0.00in /  0mm 0 W/m2
19:49 20.9 °F /  -6.2 °C 12.0 °F /  -11.1 °C 30.12in /  1019.9hPa Calm     68% 0.00in /  0mm 0 W/m2
19:55 21.0 °F /  -6.1 °C 11.8 °F /  -11.2 °C 30.12in /  1019.9hPa Calm     67% 0.00in /  0mm 0 W/m2
20:02 21.5 °F /  -5.8 °C 11.5 °F /  -11.4 °C 30.11in /  1019.5hPa Calm   2.0mph /  3.2km/h 65% 0.00in /  0mm 0 W/m2
20:08 21.6 °F /  -5.8 °C 11.6 °F /  -11.3 °C 30.12in /  1019.9hPa SSW 1.0mph /  1.6km/h 2.0mph /  3.2km/h 65% 0.00in /  0mm 0 W/m2
20:13 22.0 °F /  -5.6 °C 11.7 °F /  -11.3 °C 30.11in /  1019.5hPa Calm   1.0mph /  1.6km/h 64% 0.00in /  0mm 0 W/m2
20:19 22.8 °F /  -5.1 °C 12.1 °F /  -11.1 °C 30.11in /  1019.5hPa Calm     63% 0.00in /  0mm 0 W/m2
20:25 23.0 °F /  -5 °C 11.9 °F /  -11.2 °C 30.11in /  1019.5hPa SSW 1.0mph /  1.6km/h 2.0mph /  3.2km/h 62% 0.00in /  0mm 0 W/m2
20:32 23.2 °F /  -4.9 °C 11.7 °F /  -11.3 °C 30.11in /  1019.5hPa Calm   2.0mph /  3.2km/h 61% 0.00in /  0mm 0 W/m2
20:38 23.7 °F /  -4.6 °C 11.8 °F /  -11.2 °C 30.10in /  1019.2hPa SSW 1.0mph /  1.6km/h 2.0mph /  3.2km/h 60% 0.00in /  0mm 0 W/m2
20:43 24.7 °F /  -4.1 °C 12.4 °F /  -10.9 °C 30.10in /  1019.2hPa South 2.0mph /  3.2km/h 2.0mph /  3.2km/h 59% 0.00in /  0mm 0 W/m2
20:49 25.4 °F /  -3.7 °C 12.7 °F /  -10.7 °C 30.10in /  1019.2hPa South 2.0mph /  3.2km/h 5.0mph /  8km/h 58% 0.00in /  0mm 0 W/m2
20:55 25.9 °F /  -3.4 °C 13.1 °F /  -10.5 °C 30.10in /  1019.2hPa SSE 2.0mph /  3.2km/h 5.0mph /  8km/h 58% 0.00in /  0mm 0 W/m2
21:02 26.3 °F /  -3.2 °C 13.1 °F /  -10.5 °C 30.10in /  1019.2hPa SSE 3.0mph /  4.8km/h 3.0mph /  4.8km/h 57% 0.00in /  0mm 0 W/m2
21:08 26.5 °F /  -3.1 °C 13.3 °F /  -10.4 °C 30.09in /  1018.8hPa South 3.0mph /  4.8km/h 3.0mph /  4.8km/h 57% 0.00in /  0mm 0 W/m2
21:13 26.9 °F /  -2.8 °C 13.3 °F /  -10.4 °C 30.09in /  1018.8hPa SSW 3.0mph /  4.8km/h 6.0mph /  9.7km/h 56% 0.00in /  0mm 0 W/m2
21:19 27.3 °F /  -2.6 °C 14.1 °F /  -9.9 °C 30.09in /  1018.8hPa South 4.0mph /  6.4km/h 4.0mph /  6.4km/h 57% 0.00in /  0mm 0 W/m2
21:25 27.6 °F /  -2.4 °C 14.3 °F /  -9.8 °C 30.08in /  1018.5hPa South 5.0mph /  8km/h 6.0mph /  9.7km/h 57% 0.00in /  0mm 0 W/m2
21:32 27.8 °F /  -2.3 °C 14.9 °F /  -9.5 °C 30.08in /  1018.5hPa SSE 4.0mph /  6.4km/h 5.0mph /  8km/h 58% 0.00in /  0mm 0 W/m2
21:38 27.9 °F /  -2.3 °C 15.4 °F /  -9.2 °C 30.08in /  1018.5hPa South 4.0mph /  6.4km/h 9.0mph /  14.5km/h 59% 0.00in /  0mm 0 W/m2
21:43 28.1 °F /  -2.2 °C 16.0 °F /  -8.9 °C 30.08in /  1018.5hPa SSW 5.0mph /  8km/h 5.0mph /  8km/h 60% 0.00in /  0mm 0 W/m2
21:49 28.3 °F /  -2.1 °C 16.2 °F /  -8.8 °C 30.08in /  1018.5hPa SW 5.0mph /  8km/h 5.0mph /  8km/h 60% 0.00in /  0mm 0 W/m2
21:55 28.3 °F /  -2.1 °C 16.6 °F /  -8.6 °C 30.07in /  1018.2hPa South 5.0mph /  8km/h 9.0mph /  14.5km/h 61% 0.00in /  0mm 0 W/m2
22:02 28.5 °F /  -1.9 °C 17.1 °F /  -8.3 °C 30.08in /  1018.5hPa South 5.0mph /  8km/h 6.0mph /  9.7km/h 62% 0.00in /  0mm 0 W/m2
22:08 28.5 °F /  -1.9 °C 17.9 °F /  -7.8 °C 30.07in /  1018.2hPa South 5.0mph /  8km/h 6.0mph /  9.7km/h 64% 0.00in /  0mm 0 W/m2
22:13 28.5 °F /  -1.9 °C 18.6 °F /  -7.4 °C 30.07in /  1018.2hPa SSW 5.0mph /  8km/h 8.0mph /  12.9km/h 66% 0.00in /  0mm 0 W/m2
22:19 28.6 °F /  -1.9 °C 18.7 °F /  -7.4 °C 30.07in /  1018.2hPa South 4.0mph /  6.4km/h 4.0mph /  6.4km/h 66% 0.00in /  0mm 0 W/m2
22:25 29.0 °F /  -1.7 °C 18.7 °F /  -7.4 °C 30.07in /  1018.2hPa SW 5.0mph /  8km/h 11.0mph /  17.7km/h 65% 0.00in /  0mm 0 W/m2
22:32 29.4 °F /  -1.4 °C 18.3 °F /  -7.6 °C 30.07in /  1018.2hPa SSW 6.0mph /  9.7km/h 9.0mph /  14.5km/h 63% 0.00in /  0mm 0 W/m2
22:38 29.6 °F /  -1.3 °C 18.5 °F /  -7.5 °C 30.06in /  1017.8hPa South 6.0mph /  9.7km/h 9.0mph /  14.5km/h 63% 0.00in /  0mm 0 W/m2
22:43 29.5 °F /  -1.4 °C 18.4 °F /  -7.6 °C 30.06in /  1017.8hPa South 5.0mph /  8km/h 6.0mph /  9.7km/h 63% 0.00in /  0mm 0 W/m2
22:49 29.3 °F /  -1.5 °C 17.9 °F /  -7.8 °C 30.06in /  1017.8hPa SSE 5.0mph /  8km/h 5.0mph /  8km/h 62% 0.00in /  0mm 0 W/m2
22:55 29.1 °F /  -1.6 °C 18.1 °F /  -7.7 °C 30.05in /  1017.5hPa SSE 6.0mph /  9.7km/h 11.0mph /  17.7km/h 63% 0.00in /  0mm 0 W/m2
23:02 29.1 °F /  -1.6 °C 18.1 °F /  -7.7 °C 30.05in /  1017.5hPa SSE 6.0mph /  9.7km/h 12.0mph /  19.3km/h 63% 0.00in /  0mm 0 W/m2
23:08 29.2 °F /  -1.6 °C 17.8 °F /  -7.9 °C 30.05in /  1017.5hPa SSW 6.0mph /  9.7km/h 12.0mph /  19.3km/h 62% 0.00in /  0mm 0 W/m2
23:13 29.2 °F /  -1.6 °C 17.4 °F /  -8.1 °C 30.05in /  1017.5hPa South 5.0mph /  8km/h 7.0mph /  11.3km/h 61% 0.00in /  0mm 0 W/m2
23:19 29.4 °F /  -1.4 °C 16.8 °F /  -8.4 °C 30.05in /  1017.5hPa South 4.0mph /  6.4km/h 6.0mph /  9.7km/h 59% 0.00in /  0mm 0 W/m2
23:25 29.7 °F /  -1.3 °C 16.3 °F /  -8.7 °C 30.05in /  1017.5hPa SW 6.0mph /  9.7km/h 12.0mph /  19.3km/h 57% 0.00in /  0mm 0 W/m2
23:31 29.8 °F /  -1.2 °C 16.0 °F /  -8.9 °C 30.04in /  1017.2hPa SSW 6.0mph /  9.7km/h 6.0mph /  9.7km/h 56% 0.00in /  0mm 0 W/m2
23:38 29.8 °F /  -1.2 °C 16.0 °F /  -8.9 °C 30.05in /  1017.5hPa SW 5.0mph /  8km/h 6.0mph /  9.7km/h 56% 0.00in /  0mm 0 W/m2
23:43 29.8 °F /  -1.2 °C 16.0 °F /  -8.9 °C 30.04in /  1017.2hPa SSW 4.0mph /  6.4km/h 12.0mph /  19.3km/h 56% 0.00in /  0mm 0 W/m2
23:49 29.9 °F /  -1.2 °C 15.7 °F /  -9.1 °C 30.05in /  1017.5hPa South 5.0mph /  8km/h 11.0mph /  17.7km/h 55% 0.00in /  0mm 0 W/m2
23:55 30.1 °F /  -1.1 °C 15.4 °F /  -9.2 °C 30.04in /  1017.2hPa South 5.0mph /  8km/h 11.0mph /  17.7km/h 54% 0.00in /  0mm 0 W/m2
Country Meadow, Clay, NY, USA
Compliments of Weather Underground - 2 mb